Portada
METAR-TAF:

METAR-TAF

Aeroports :

Ardabil, Iran

latitud: 38-19-35N, longitud: 048-25-28E, altitud: 1315 m

Observació

L'informe es va fer fa 2 hores i 9 minuts, a les 02:00 UTC
Vent 8 kt del Nord-Est
Temperatura 4°C
Humitat 100%
Pressió 1009 hPa
Visibilitat: 0100 m
Cel cobert a una alçada de 300 ft
boira

METAR: OITL 290200Z 05008KT 0100 FG OVC003 04/04 Q1009

Hora: 08:39 (04:09 UTC)


TAF: manca

Observacions i pronòstics meteorològics de més de 4000 aeroports (METAR i TAF).

Les estacions disponibles són els punts grocs i vermells al mapa.

Posi el ratolí al punt desitjat per veure el nom de l'estació.

Feu clic per veure les observacions i els pronòstics meteorològics.

Per canviar el mapa: feu clic els botons verds amb una creu de color negre per apropar; al botó verd amb un guió per allunyar la imatge; o en les fletxes verdes per a mapes adjacents.


METAR-TAF: